sensor_id;sensor_type;location;lat;lon;timestamp;pressure;altitude;pressure_sealevel;temperature;humidity
51715;BME280;39115;59.332;18.034;2022-08-25T00:01:27;102214.84;;;18.41;56.62
51715;BME280;39115;59.332;18.034;2022-08-25T00:03:55;102209.88;;;18.37;56.97
51715;BME280;39115;59.332;18.034;2022-08-25T00:06:21;102211.88;;;18.35;56.98
51715;BME280;39115;59.332;18.034;2022-08-25T00:08:46;102215.88;;;18.30;57.13
51715;BME280;39115;59.332;18.034;2022-08-25T00:11:16;102213.47;;;18.27;57.43
51715;BME280;39115;59.332;18.034;2022-08-25T00:13:45;102212.66;;;18.27;57.37
51715;BME280;39115;59.332;18.034;2022-08-25T00:16:11;102212.78;;;18.25;57.56
51715;BME280;39115;59.332;18.034;2022-08-25T00:18:38;102205.84;;;18.23;57.89
51715;BME280;39115;59.332;18.034;2022-08-25T00:21:05;102202.59;;;18.19;57.93
51715;BME280;39115;59.332;18.034;2022-08-25T00:23:31;102215.53;;;18.15;58.04
51715;BME280;39115;59.332;18.034;2022-08-25T00:25:56;102216.69;;;18.13;58.45
51715;BME280;39115;59.332;18.034;2022-08-25T00:28:22;102211.28;;;18.13;58.38
51715;BME280;39115;59.332;18.034;2022-08-25T00:30:48;102219.38;;;18.13;58.63
51715;BME280;39115;59.332;18.034;2022-08-25T00:33:15;102218.66;;;18.11;58.72
51715;BME280;39115;59.332;18.034;2022-08-25T00:35:41;102218.13;;;18.07;59.00
51715;BME280;39115;59.332;18.034;2022-08-25T00:38:08;102217.72;;;18.02;59.42
51715;BME280;39115;59.332;18.034;2022-08-25T00:40:34;102226.09;;;17.99;59.57
51715;BME280;39115;59.332;18.034;2022-08-25T00:43:01;102212.94;;;17.96;60.25
51715;BME280;39115;59.332;18.034;2022-08-25T00:45:27;102223.97;;;17.93;60.41
51715;BME280;39115;59.332;18.034;2022-08-25T00:47:52;102222.41;;;17.90;60.32
51715;BME280;39115;59.332;18.034;2022-08-25T00:50:18;102219.84;;;17.89;60.43
51715;BME280;39115;59.332;18.034;2022-08-25T00:52:47;102219.16;;;17.86;61.03
51715;BME280;39115;59.332;18.034;2022-08-25T00:57:51;102217.31;;;17.87;60.97
51715;BME280;39115;59.332;18.034;2022-08-25T01:00:25;102214.78;;;17.85;61.19
51715;BME280;39115;59.332;18.034;2022-08-25T01:02:51;102220.16;;;17.85;61.24
51715;BME280;39115;59.332;18.034;2022-08-25T01:05:17;102223.84;;;17.84;61.28
51715;BME280;39115;59.332;18.034;2022-08-25T01:07:45;102221.16;;;17.84;61.03
51715;BME280;39115;59.332;18.034;2022-08-25T01:10:11;102219.28;;;17.85;61.00
51715;BME280;39115;59.332;18.034;2022-08-25T01:12:38;102214.94;;;17.84;61.18
51715;BME280;39115;59.332;18.034;2022-08-25T01:15:08;102214.94;;;17.84;61.16
51715;BME280;39115;59.332;18.034;2022-08-25T01:17:50;102220.59;;;17.81;61.76
51715;BME280;39115;59.332;18.034;2022-08-25T01:20:18;102213.66;;;17.78;62.14
51715;BME280;39115;59.332;18.034;2022-08-25T01:22:45;102210.25;;;17.76;62.37
51715;BME280;39115;59.332;18.034;2022-08-25T01:28:15;102211.56;;;17.72;62.54
51715;BME280;39115;59.332;18.034;2022-08-25T01:30:41;102219.66;;;17.72;62.45
51715;BME280;39115;59.332;18.034;2022-08-25T01:33:08;102220.47;;;17.73;62.79
51715;BME280;39115;59.332;18.034;2022-08-25T01:35:34;102216.09;;;17.72;62.65
51715;BME280;39115;59.332;18.034;2022-08-25T01:38:01;102225.03;;;17.72;62.56
51715;BME280;39115;59.332;18.034;2022-08-25T01:40:27;102217.06;;;17.70;62.92
51715;BME280;39115;59.332;18.034;2022-08-25T01:43:15;102215.25;;;17.71;62.11
51715;BME280;39115;59.332;18.034;2022-08-25T01:45:45;102219.91;;;17.69;62.77
51715;BME280;39115;59.332;18.034;2022-08-25T01:48:11;102217.38;;;17.67;62.83
51715;BME280;39115;59.332;18.034;2022-08-25T01:50:39;102212.13;;;17.66;62.75
51715;BME280;39115;59.332;18.034;2022-08-25T01:53:30;102214.81;;;17.66;62.15
51715;BME280;39115;59.332;18.034;2022-08-25T01:55:56;102220.50;;;17.63;63.04
51715;BME280;39115;59.332;18.034;2022-08-25T01:58:32;102217.25;;;17.59;63.09
51715;BME280;39115;59.332;18.034;2022-08-25T02:01:00;102216.72;;;17.56;63.08
51715;BME280;39115;59.332;18.034;2022-08-25T02:03:27;102221.38;;;17.53;63.27
51715;BME280;39115;59.332;18.034;2022-08-25T02:05:53;102217.84;;;17.53;63.30
51715;BME280;39115;59.332;18.034;2022-08-25T02:08:19;102218.84;;;17.52;63.41
51715;BME280;39115;59.332;18.034;2022-08-25T02:10:46;102223.50;;;17.50;63.27
51715;BME280;39115;59.332;18.034;2022-08-25T02:13:12;102218.28;;;17.48;63.48
51715;BME280;39115;59.332;18.034;2022-08-25T02:15:42;102214.00;;;17.46;63.43
51715;BME280;39115;59.332;18.034;2022-08-25T02:18:09;102215.16;;;17.43;63.13
51715;BME280;39115;59.332;18.034;2022-08-25T02:20:35;102210.63;;;17.44;63.48
51715;BME280;39115;59.332;18.034;2022-08-25T02:23:01;102213.44;;;17.42;63.41
51715;BME280;39115;59.332;18.034;2022-08-25T02:25:26;102212.63;;;17.42;63.64
51715;BME280;39115;59.332;18.034;2022-08-25T02:27:52;102213.75;;;17.39;63.51
51715;BME280;39115;59.332;18.034;2022-08-25T02:30:17;102204.97;;;17.37;63.66
51715;BME280;39115;59.332;18.034;2022-08-25T02:32:43;102213.91;;;17.37;63.57
51715;BME280;39115;59.332;18.034;2022-08-25T02:35:08;102212.22;;;17.36;63.61
51715;BME280;39115;59.332;18.034;2022-08-25T02:37:34;102211.66;;;17.33;63.62
51715;BME280;39115;59.332;18.034;2022-08-25T02:40:01;102216.31;;;17.31;63.64
51715;BME280;39115;59.332;18.034;2022-08-25T02:42:26;102218.59;;;17.26;63.53
51715;BME280;39115;59.332;18.034;2022-08-25T02:44:52;102220.72;;;17.22;63.34
51715;BME280;39115;59.332;18.034;2022-08-25T02:47:18;102214.63;;;17.20;63.53
51715;BME280;39115;59.332;18.034;2022-08-25T02:49:44;102216.59;;;17.18;63.63
51715;BME280;39115;59.332;18.034;2022-08-25T02:52:10;102212.22;;;17.17;63.61
51715;BME280;39115;59.332;18.034;2022-08-25T02:54:35;102217.03;;;17.13;63.73
51715;BME280;39115;59.332;18.034;2022-08-25T02:57:01;102217.91;;;17.14;63.53
51715;BME280;39115;59.332;18.034;2022-08-25T02:59:26;102218.16;;;17.11;63.67
51715;BME280;39115;59.332;18.034;2022-08-25T03:01:52;102217.59;;;17.07;63.89
51715;BME280;39115;59.332;18.034;2022-08-25T03:04:17;102214.09;;;17.06;63.74
51715;BME280;39115;59.332;18.034;2022-08-25T03:06:43;102209.69;;;17.05;63.46
51715;BME280;39115;59.332;18.034;2022-08-25T03:09:09;102217.75;;;17.05;63.99
51715;BME280;39115;59.332;18.034;2022-08-25T03:11:34;102220.72;;;17.02;63.71
51715;BME280;39115;59.332;18.034;2022-08-25T03:14:03;102224.53;;;17.00;63.71
51715;BME280;39115;59.332;18.034;2022-08-25T03:16:29;102227.22;;;17.00;63.79
51715;BME280;39115;59.332;18.034;2022-08-25T03:18:55;102216.63;;;16.98;64.14
51715;BME280;39115;59.332;18.034;2022-08-25T03:21:20;102224.69;;;16.98;64.06
51715;BME280;39115;59.332;18.034;2022-08-25T03:23:46;102224.81;;;16.97;64.18
51715;BME280;39115;59.332;18.034;2022-08-25T03:26:12;102217.03;;;16.94;64.00
51715;BME280;39115;59.332;18.034;2022-08-25T03:29:00;102218.16;;;16.91;63.98
51715;BME280;39115;59.332;18.034;2022-08-25T03:31:29;102212.91;;;16.89;64.18
51715;BME280;39115;59.332;18.034;2022-08-25T03:33:55;102217.44;;;16.89;64.36
51715;BME280;39115;59.332;18.034;2022-08-25T03:36:21;102217.44;;;16.89;64.10
51715;BME280;39115;59.332;18.034;2022-08-25T03:38:47;102213.88;;;16.88;64.20
51715;BME280;39115;59.332;18.034;2022-08-25T03:41:23;102209.38;;;16.89;64.40
51715;BME280;39115;59.332;18.034;2022-08-25T03:43:50;102204.25;;;16.86;64.18
51715;BME280;39115;59.332;18.034;2022-08-25T03:46:18;102208.66;;;16.87;63.97
51715;BME280;39115;59.332;18.034;2022-08-25T03:48:44;102206.94;;;16.86;64.07
51715;BME280;39115;59.332;18.034;2022-08-25T03:51:09;102214.88;;;16.87;64.10
51715;BME280;39115;59.332;18.034;2022-08-25T03:53:35;102217.56;;;16.87;63.98
51715;BME280;39115;59.332;18.034;2022-08-25T03:56:00;102212.19;;;16.87;63.95
51715;BME280;39115;59.332;18.034;2022-08-25T03:58:26;102214.75;;;16.89;63.57
51715;BME280;39115;59.332;18.034;2022-08-25T04:00:51;102216.44;;;16.90;63.64
51715;BME280;39115;59.332;18.034;2022-08-25T04:03:17;102219.97;;;16.90;63.43
51715;BME280;39115;59.332;18.034;2022-08-25T04:05:43;102225.19;;;16.92;63.62
51715;BME280;39115;59.332;18.034;2022-08-25T04:08:10;102219.75;;;16.94;63.47
51715;BME280;39115;59.332;18.034;2022-08-25T04:10:36;102213.22;;;16.96;63.08
51715;BME280;39115;59.332;18.034;2022-08-25T04:13:01;102214.94;;;16.97;62.73
51715;BME280;39115;59.332;18.034;2022-08-25T04:15:27;102213.78;;;17.00;62.77
51715;BME280;39115;59.332;18.034;2022-08-25T04:17:52;102212.66;;;17.02;62.58
51715;BME280;39115;59.332;18.034;2022-08-25T04:20:18;102216.06;;;17.04;62.80
51715;BME280;39115;59.332;18.034;2022-08-25T04:22:44;102215.75;;;17.07;62.39
51715;BME280;39115;59.332;18.034;2022-08-25T04:25:09;102216.47;;;17.10;62.03
51715;BME280;39115;59.332;18.034;2022-08-25T04:27:35;102217.19;;;17.12;62.01
51715;BME280;39115;59.332;18.034;2022-08-25T04:30:02;102218.75;;;17.14;61.74
51715;BME280;39115;59.332;18.034;2022-08-25T04:32:27;102217.59;;;17.17;61.71
51715;BME280;39115;59.332;18.034;2022-08-25T04:34:53;102216.59;;;17.18;61.52
51715;BME280;39115;59.332;18.034;2022-08-25T04:37:18;102219.03;;;17.21;61.45
51715;BME280;39115;59.332;18.034;2022-08-25T04:39:44;102220.41;;;17.25;61.02
51715;BME280;39115;59.332;18.034;2022-08-25T04:42:09;102216.59;;;17.28;60.90
51715;BME280;39115;59.332;18.034;2022-08-25T04:44:35;102221.53;;;17.32;60.52
51715;BME280;39115;59.332;18.034;2022-08-25T04:47:00;102227.66;;;17.34;60.31
51715;BME280;39115;59.332;18.034;2022-08-25T04:49:26;102219.41;;;17.36;60.42
51715;BME280;39115;59.332;18.034;2022-08-25T04:51:52;102222.81;;;17.38;59.89
51715;BME280;39115;59.332;18.034;2022-08-25T04:54:18;102220.69;;;17.42;59.69
51715;BME280;39115;59.332;18.034;2022-08-25T04:56:49;102217.56;;;17.46;59.38
51715;BME280;39115;59.332;18.034;2022-08-25T04:59:16;102219.69;;;17.52;59.44
51715;BME280;39115;59.332;18.034;2022-08-25T05:01:42;102214.00;;;17.56;59.04
51715;BME280;39115;59.332;18.034;2022-08-25T05:04:10;102217.94;;;17.61;59.12
51715;BME280;39115;59.332;18.034;2022-08-25T05:06:36;102227.28;;;17.67;58.69
51715;BME280;39115;59.332;18.034;2022-08-25T05:09:02;102218.78;;;17.72;58.84
51715;BME280;39115;59.332;18.034;2022-08-25T05:11:28;102223.56;;;17.78;58.55
51715;BME280;39115;59.332;18.034;2022-08-25T05:13:55;102222.28;;;17.82;58.37
51715;BME280;39115;59.332;18.034;2022-08-25T05:16:22;102220.88;;;17.88;57.71
51715;BME280;39115;59.332;18.034;2022-08-25T05:18:48;102218.72;;;17.91;57.65
51715;BME280;39115;59.332;18.034;2022-08-25T05:21:17;102220.84;;;17.97;57.32
51715;BME280;39115;59.332;18.034;2022-08-25T05:23:43;102219.41;;;18.03;57.19
51715;BME280;39115;59.332;18.034;2022-08-25T05:26:11;102215.97;;;18.11;56.95
51715;BME280;39115;59.332;18.034;2022-08-25T05:28:38;102219.91;;;18.16;56.64
51715;BME280;39115;59.332;18.034;2022-08-25T05:31:08;102220.19;;;18.23;56.56
51715;BME280;39115;59.332;18.034;2022-08-25T05:33:35;102217.72;;;18.30;56.10
51715;BME280;39115;59.332;18.034;2022-08-25T05:36:01;102219.81;;;18.36;56.04
51715;BME280;39115;59.332;18.034;2022-08-25T05:38:27;102227.16;;;18.44;55.70
51715;BME280;39115;59.332;18.034;2022-08-25T05:41:00;102221.84;;;18.52;55.40
51715;BME280;39115;59.332;18.034;2022-08-25T05:43:26;102215.84;;;18.58;55.08
51715;BME280;39115;59.332;18.034;2022-08-25T05:45:54;102216.94;;;18.65;54.85
51715;BME280;39115;59.332;18.034;2022-08-25T05:48:19;102225.28;;;18.72;54.79
51715;BME280;39115;59.332;18.034;2022-08-25T05:50:57;102214.69;;;18.79;54.99
51715;BME280;39115;59.332;18.034;2022-08-25T05:53:23;102225.91;;;18.84;54.88
51715;BME280;39115;59.332;18.034;2022-08-25T05:55:50;102227.97;;;18.90;54.96
51715;BME280;39115;59.332;18.034;2022-08-25T05:58:16;102229.25;;;18.96;55.15
51715;BME280;39115;59.332;18.034;2022-08-25T06:00:42;102229.63;;;19.01;55.33
51715;BME280;39115;59.332;18.034;2022-08-25T06:03:08;102230.84;;;19.07;55.44
51715;BME280;39115;59.332;18.034;2022-08-25T06:05:34;102234.63;;;19.14;55.64
51715;BME280;39115;59.332;18.034;2022-08-25T06:07:59;102236.69;;;19.20;55.58
51715;BME280;39115;59.332;18.034;2022-08-25T06:10:25;102230.66;;;19.26;55.72
51715;BME280;39115;59.332;18.034;2022-08-25T06:12:50;102234.44;;;19.34;55.76
51715;BME280;39115;59.332;18.034;2022-08-25T06:15:19;102227.41;;;19.41;55.71
51715;BME280;39115;59.332;18.034;2022-08-25T06:17:47;102233.88;;;19.48;55.82
51715;BME280;39115;59.332;18.034;2022-08-25T06:20:15;102230.56;;;19.54;55.84
51715;BME280;39115;59.332;18.034;2022-08-25T06:22:41;102233.31;;;19.63;56.15
51715;BME280;39115;59.332;18.034;2022-08-25T06:25:08;102234.50;;;19.68;56.34
51715;BME280;39115;59.332;18.034;2022-08-25T06:27:34;102234.56;;;19.77;56.31
51715;BME280;39115;59.332;18.034;2022-08-25T06:30:00;102236.78;;;19.81;56.18
51715;BME280;39115;59.332;18.034;2022-08-25T06:32:34;102237.22;;;19.86;56.02
51715;BME280;39115;59.332;18.034;2022-08-25T06:35:05;102244.66;;;19.93;55.85
51715;BME280;39115;59.332;18.034;2022-08-25T06:37:31;102242.16;;;19.99;55.86
51715;BME280;39115;59.332;18.034;2022-08-25T06:39:56;102248.28;;;20.10;55.79
51715;BME280;39115;59.332;18.034;2022-08-25T06:42:22;102246.63;;;20.17;55.44
51715;BME280;39115;59.332;18.034;2022-08-25T06:44:47;102248.69;;;20.23;55.33
51715;BME280;39115;59.332;18.034;2022-08-25T06:47:13;102239.06;;;20.29;55.34
51715;BME280;39115;59.332;18.034;2022-08-25T06:49:41;102242.13;;;20.34;55.00
51715;BME280;39115;59.332;18.034;2022-08-25T06:52:07;102245.34;;;20.37;54.97
51715;BME280;39115;59.332;18.034;2022-08-25T06:54:33;102246.56;;;20.43;54.68
51715;BME280;39115;59.332;18.034;2022-08-25T06:56:59;102245.75;;;20.51;54.46
51715;BME280;39115;59.332;18.034;2022-08-25T06:59:25;102250.31;;;20.59;54.26
51715;BME280;39115;59.332;18.034;2022-08-25T07:01:50;102253.41;;;20.64;54.16
51715;BME280;39115;59.332;18.034;2022-08-25T07:04:16;102249.56;;;20.75;53.82
51715;BME280;39115;59.332;18.034;2022-08-25T07:06:42;102247.88;;;20.82;53.68
51715;BME280;39115;59.332;18.034;2022-08-25T07:09:09;102238.91;;;20.90;53.44
51715;BME280;39115;59.332;18.034;2022-08-25T07:11:34;102242.31;;;21.00;53.22
51715;BME280;39115;59.332;18.034;2022-08-25T07:14:01;102244.69;;;21.11;53.07
51715;BME280;39115;59.332;18.034;2022-08-25T07:16:27;102235.56;;;21.21;52.92
51715;BME280;39115;59.332;18.034;2022-08-25T07:18:53;102240.63;;;21.32;52.67
51715;BME280;39115;59.332;18.034;2022-08-25T07:21:22;102244.84;;;21.43;52.36
51715;BME280;39115;59.332;18.034;2022-08-25T07:23:47;102250.09;;;21.53;52.14
51715;BME280;39115;59.332;18.034;2022-08-25T07:26:16;102255.03;;;21.57;52.09
51715;BME280;39115;59.332;18.034;2022-08-25T07:28:42;102257.72;;;21.66;51.64
51715;BME280;39115;59.332;18.034;2022-08-25T07:31:08;102260.25;;;21.75;51.42
51715;BME280;39115;59.332;18.034;2022-08-25T07:33:34;102262.09;;;21.83;50.97
51715;BME280;39115;59.332;18.034;2022-08-25T07:36:00;102265.63;;;21.92;50.85
51715;BME280;39115;59.332;18.034;2022-08-25T07:38:25;102262.06;;;22.00;50.52
51715;BME280;39115;59.332;18.034;2022-08-25T07:40:51;102262.03;;;22.08;50.32
51715;BME280;39115;59.332;18.034;2022-08-25T07:43:22;102254.22;;;22.13;49.94
51715;BME280;39115;59.332;18.034;2022-08-25T07:45:47;102258.09;;;22.19;49.80
51715;BME280;39115;59.332;18.034;2022-08-25T07:48:13;102261.78;;;22.26;49.50
51715;BME280;39115;59.332;18.034;2022-08-25T07:50:42;102256.97;;;22.36;49.24
51715;BME280;39115;59.332;18.034;2022-08-25T07:53:10;102253.25;;;22.46;48.64
51715;BME280;39115;59.332;18.034;2022-08-25T07:55:36;102253.09;;;22.47;48.65
51715;BME280;39115;59.332;18.034;2022-08-25T07:58:03;102249.66;;;22.53;48.08
51715;BME280;39115;59.332;18.034;2022-08-25T08:00:31;102253.16;;;22.62;47.67
51715;BME280;39115;59.332;18.034;2022-08-25T08:02:59;102249.09;;;22.66;47.27
51715;BME280;39115;59.332;18.034;2022-08-25T08:05:25;102252.75;;;22.73;47.06
51715;BME280;39115;59.332;18.034;2022-08-25T08:07:52;102256.25;;;22.82;46.65
51715;BME280;39115;59.332;18.034;2022-08-25T08:10:18;102253.69;;;22.89;46.05
51715;BME280;39115;59.332;18.034;2022-08-25T08:12:44;102253.63;;;22.97;45.83
51715;BME280;39115;59.332;18.034;2022-08-25T08:15:10;102252.69;;;23.05;45.60
51715;BME280;39115;59.332;18.034;2022-08-25T08:17:37;102255.16;;;23.15;45.27
51715;BME280;39115;59.332;18.034;2022-08-25T08:20:03;102255.31;;;23.21;44.99
51715;BME280;39115;59.332;18.034;2022-08-25T08:22:31;102262.53;;;23.29;44.71
51715;BME280;39115;59.332;18.034;2022-08-25T08:24:57;102267.75;;;23.39;44.01
51715;BME280;39115;59.332;18.034;2022-08-25T08:27:22;102267.84;;;23.46;43.88
51715;BME280;39115;59.332;18.034;2022-08-25T08:29:48;102266.72;;;23.55;43.64
51715;BME280;39115;59.332;18.034;2022-08-25T08:32:14;102275.84;;;23.62;43.13
51715;BME280;39115;59.332;18.034;2022-08-25T08:34:42;102266.09;;;23.68;42.96
51715;BME280;39115;59.332;18.034;2022-08-25T08:37:07;102266.84;;;23.77;42.83
51715;BME280;39115;59.332;18.034;2022-08-25T08:39:33;102272.41;;;23.83;42.71
51715;BME280;39115;59.332;18.034;2022-08-25T08:42:32;102266.88;;;23.92;42.70
51715;BME280;39115;59.332;18.034;2022-08-25T08:45:20;102274.56;;;24.03;42.80
51715;BME280;39115;59.332;18.034;2022-08-25T08:56:05;102270.53;;;24.29;41.26
51715;BME280;39115;59.332;18.034;2022-08-25T08:58:54;102267.34;;;24.40;41.43
51715;BME280;39115;59.332;18.034;2022-08-25T09:01:28;102264.88;;;24.45;40.83
51715;BME280;39115;59.332;18.034;2022-08-25T09:04:04;102263.75;;;24.55;40.81
51715;BME280;39115;59.332;18.034;2022-08-25T09:06:51;102264.47;;;24.63;40.53
51715;BME280;39115;59.332;18.034;2022-08-25T09:09:24;102262.69;;;24.71;39.99
51715;BME280;39115;59.332;18.034;2022-08-25T09:20:50;102254.81;;;24.98;38.90
51715;BME280;39115;59.332;18.034;2022-08-25T09:23:40;102254.41;;;25.01;37.96
51715;BME280;39115;59.332;18.034;2022-08-25T09:28:49;102254.66;;;25.06;37.03
51715;BME280;39115;59.332;18.034;2022-08-25T09:31:22;102248.44;;;25.12;36.53
51715;BME280;39115;59.332;18.034;2022-08-25T09:33:48;102248.06;;;25.15;36.15
51715;BME280;39115;59.332;18.034;2022-08-25T09:36:17;102256.47;;;25.20;36.12
51715;BME280;39115;59.332;18.034;2022-08-25T09:38:43;102251.47;;;25.24;36.16
51715;BME280;39115;59.332;18.034;2022-08-25T09:41:08;102250.22;;;25.26;35.41
51715;BME280;39115;59.332;18.034;2022-08-25T09:43:43;102234.13;;;25.32;35.33
51715;BME280;39115;59.332;18.034;2022-08-25T09:46:23;102232.31;;;25.39;34.98
51715;BME280;39115;59.332;18.034;2022-08-25T09:48:55;102233.63;;;25.43;34.71
51715;BME280;39115;59.332;18.034;2022-08-25T09:51:29;102235.97;;;25.46;34.25
51715;BME280;39115;59.332;18.034;2022-08-25T09:54:19;102235.09;;;25.46;34.30
51715;BME280;39115;59.332;18.034;2022-08-25T10:01:52;102224.00;;;25.47;33.82
51715;BME280;39115;59.332;18.034;2022-08-25T10:06:52;102216.31;;;25.57;33.48
51715;BME280;39115;59.332;18.034;2022-08-25T10:09:29;102213.44;;;25.66;33.17
51715;BME280;39115;59.332;18.034;2022-08-25T10:11:55;102221.03;;;25.70;33.22
51715;BME280;39115;59.332;18.034;2022-08-25T10:17:27;102205.53;;;25.78;33.51
51715;BME280;39115;59.332;18.034;2022-08-25T10:22:36;102211.00;;;25.78;33.30
51715;BME280;39115;59.332;18.034;2022-08-25T10:25:04;102204.72;;;25.84;33.35
51715;BME280;39115;59.332;18.034;2022-08-25T10:30:33;102197.84;;;25.95;33.28
51715;BME280;39115;59.332;18.034;2022-08-25T10:36:32;102186.75;;;25.96;33.26
51715;BME280;39115;59.332;18.034;2022-08-25T10:39:05;102185.03;;;25.88;33.18
51715;BME280;39115;59.332;18.034;2022-08-25T10:44:33;102178.09;;;25.86;33.59
51715;BME280;39115;59.332;18.034;2022-08-25T10:50:31;102178.97;;;25.93;33.25
51715;BME280;39115;59.332;18.034;2022-08-25T10:53:24;102173.31;;;25.95;33.39
51715;BME280;39115;59.332;18.034;2022-08-25T10:56:12;102179.19;;;25.98;33.41
51715;BME280;39115;59.332;18.034;2022-08-25T10:58:57;102172.69;;;25.99;33.30
51715;BME280;39115;59.332;18.034;2022-08-25T11:04:22;102163.50;;;26.07;33.29
51715;BME280;39115;59.332;18.034;2022-08-25T11:07:04;102165.03;;;26.10;33.31
51715;BME280;39115;59.332;18.034;2022-08-25T11:09:35;102162.06;;;26.11;33.18
51715;BME280;39115;59.332;18.034;2022-08-25T11:12:15;102162.06;;;26.11;33.19
51715;BME280;39115;59.332;18.034;2022-08-25T11:14:51;102167.31;;;26.13;33.09
51715;BME280;39115;59.332;18.034;2022-08-25T11:17:25;102164.41;;;26.14;33.12
51715;BME280;39115;59.332;18.034;2022-08-25T11:19:59;102173.84;;;26.18;32.86
51715;BME280;39115;59.332;18.034;2022-08-25T11:22:43;102172.84;;;26.26;33.18
51715;BME280;39115;59.332;18.034;2022-08-25T11:25:29;102171.78;;;26.34;33.36
51715;BME280;39115;59.332;18.034;2022-08-25T11:28:05;102166.56;;;26.32;32.74
51715;BME280;39115;59.332;18.034;2022-08-25T11:30:34;102167.38;;;26.33;32.80
51715;BME280;39115;59.332;18.034;2022-08-25T11:33:00;102161.53;;;26.36;32.62
51715;BME280;39115;59.332;18.034;2022-08-25T11:35:30;102165.50;;;26.40;32.71
51715;BME280;39115;59.332;18.034;2022-08-25T11:43:42;102161.97;;;26.46;32.96
51715;BME280;39115;59.332;18.034;2022-08-25T11:51:46;102138.66;;;26.50;32.67
51715;BME280;39115;59.332;18.034;2022-08-25T11:54:33;102143.28;;;26.50;32.67
51715;BME280;39115;59.332;18.034;2022-08-25T11:57:09;102138.03;;;26.48;32.54
51715;BME280;39115;59.332;18.034;2022-08-25T12:02:37;102127.31;;;26.60;32.56
51715;BME280;39115;59.332;18.034;2022-08-25T12:05:06;102129.88;;;26.62;32.40
51715;BME280;39115;59.332;18.034;2022-08-25T12:11:05;102110.75;;;26.68;32.47
51715;BME280;39115;59.332;18.034;2022-08-25T12:13:43;102112.00;;;26.73;32.19
51715;BME280;39115;59.332;18.034;2022-08-25T12:30:25;102079.88;;;27.02;31.81
51715;BME280;39115;59.332;18.034;2022-08-25T12:35:54;102082.78;;;27.20;31.49
51715;BME280;39115;59.332;18.034;2022-08-25T12:38:30;102081.91;;;27.26;31.29
51715;BME280;39115;59.332;18.034;2022-08-25T12:41:02;102075.41;;;27.27;31.30
51715;BME280;39115;59.332;18.034;2022-08-25T12:43:32;102075.59;;;27.33;31.29
51715;BME280;39115;59.332;18.034;2022-08-25T12:48:55;102067.59;;;27.44;31.04
51715;BME280;39115;59.332;18.034;2022-08-25T12:55:02;102065.25;;;27.48;31.12
51715;BME280;39115;59.332;18.034;2022-08-25T12:57:37;102054.91;;;27.57;30.95
51715;BME280;39115;59.332;18.034;2022-08-25T13:08:43;102048.22;;;27.53;31.14
51715;BME280;39115;59.332;18.034;2022-08-25T13:11:22;102051.09;;;27.65;31.04
51715;BME280;39115;59.332;18.034;2022-08-25T13:16:28;102043.81;;;27.90;30.58
51715;BME280;39115;59.332;18.034;2022-08-25T13:18:55;102051.31;;;28.02;30.72
51715;BME280;39115;59.332;18.034;2022-08-25T13:21:40;102047.94;;;28.06;30.34
51715;BME280;39115;59.332;18.034;2022-08-25T13:24:40;102053.97;;;28.15;30.51
51715;BME280;39115;59.332;18.034;2022-08-25T13:27:07;102054.56;;;28.24;30.17
51715;BME280;39115;59.332;18.034;2022-08-25T13:29:36;102052.78;;;28.36;30.18
51715;BME280;39115;59.332;18.034;2022-08-25T13:32:16;102049.94;;;28.50;29.92
51715;BME280;39115;59.332;18.034;2022-08-25T13:34:48;102047.28;;;28.62;29.69
51715;BME280;39115;59.332;18.034;2022-08-25T13:37:17;102035.44;;;28.68;29.82
51715;BME280;39115;59.332;18.034;2022-08-25T13:40:20;102034.03;;;28.84;29.69
51715;BME280;39115;59.332;18.034;2022-08-25T13:42:49;102031.00;;;28.92;29.37
51715;BME280;39115;59.332;18.034;2022-08-25T13:45:21;102036.94;;;29.08;29.36
51715;BME280;39115;59.332;18.034;2022-08-25T13:47:48;102033.97;;;29.28;29.12
51715;BME280;39115;59.332;18.034;2022-08-25T13:55:52;102032.97;;;29.90;28.66
51715;BME280;39115;59.332;18.034;2022-08-25T13:58:20;102035.06;;;30.06;28.90
51715;BME280;39115;59.332;18.034;2022-08-25T14:01:17;102026.97;;;30.23;28.77
51715;BME280;39115;59.332;18.034;2022-08-25T14:03:46;102024.41;;;30.40;28.33
51715;BME280;39115;59.332;18.034;2022-08-25T14:11:31;102022.25;;;30.78;28.06
51715;BME280;39115;59.332;18.034;2022-08-25T14:14:10;102024.16;;;30.89;27.79
51715;BME280;39115;59.332;18.034;2022-08-25T14:17:04;102017.78;;;31.01;27.78
51715;BME280;39115;59.332;18.034;2022-08-25T14:19:32;102023.31;;;31.13;27.27
51715;BME280;39115;59.332;18.034;2022-08-25T14:21:58;102018.38;;;31.27;27.09
51715;BME280;39115;59.332;18.034;2022-08-25T14:24:30;102020.00;;;31.40;26.79
51715;BME280;39115;59.332;18.034;2022-08-25T14:26:56;102011.94;;;31.50;26.99
51715;BME280;39115;59.332;18.034;2022-08-25T14:29:21;102010.13;;;31.56;26.77
51715;BME280;39115;59.332;18.034;2022-08-25T14:31:48;102000.66;;;31.63;26.45
51715;BME280;39115;59.332;18.034;2022-08-25T14:34:17;102002.84;;;31.78;26.50
51715;BME280;39115;59.332;18.034;2022-08-25T14:36:43;102000.16;;;31.95;26.64
51715;BME280;39115;59.332;18.034;2022-08-25T14:39:10;101995.03;;;32.21;26.38
51715;BME280;39115;59.332;18.034;2022-08-25T14:41:38;101996.88;;;32.50;26.46
51715;BME280;39115;59.332;18.034;2022-08-25T14:44:06;101982.53;;;32.87;26.40
51715;BME280;39115;59.332;18.034;2022-08-25T14:46:35;101985.72;;;33.45;25.94
51715;BME280;39115;59.332;18.034;2022-08-25T14:49:05;101978.72;;;34.25;25.37